createdAt,value
2022-09-03T00:02:52.877Z,19.37
2022-09-03T00:07:55.184Z,19.21
2022-09-03T00:13:01.674Z,18.89
2022-09-03T00:18:16.247Z,19.04
2022-09-03T00:23:24.992Z,19.04
2022-09-03T00:28:35.846Z,19.30
2022-09-03T00:33:40.505Z,19.25
2022-09-03T00:38:42.784Z,18.88
2022-09-03T00:43:53.892Z,19.00
2022-09-03T00:49:13.352Z,19.02
2022-09-03T00:54:21.706Z,18.75
2022-09-03T00:59:48.664Z,18.70
2022-09-03T01:05:25.564Z,18.98
2022-09-03T01:10:58.786Z,19.01
2022-09-03T01:16:18.687Z,19.16
2022-09-03T01:21:49.245Z,19.09
2022-09-03T01:27:13.354Z,19.43
2022-09-03T01:32:27.306Z,19.05
2022-09-03T01:38:17.725Z,18.79
2022-09-03T01:43:53.285Z,18.78
2022-09-03T01:49:23.567Z,18.80
2022-09-03T01:54:51.445Z,18.61
2022-09-03T02:00:24.773Z,18.89
2022-09-03T02:05:28.445Z,18.74
2022-09-03T02:10:42.844Z,18.50
2022-09-03T02:15:47.359Z,18.36
2022-09-03T02:20:53.634Z,18.64
2022-09-03T02:26:01.526Z,17.95
2022-09-03T02:31:05.589Z,18.32
2022-09-03T02:36:18.185Z,18.74
2022-09-03T02:41:39.316Z,19.21
2022-09-03T02:46:49.017Z,19.33
2022-09-03T02:51:51.744Z,19.35
2022-09-03T02:57:16.686Z,19.14
2022-09-03T03:02:25.967Z,19.19
2022-09-03T03:07:32.439Z,19.19
2022-09-03T03:12:34.905Z,19.09
2022-09-03T03:17:38.744Z,19.08
2022-09-03T03:22:41.125Z,19.17
2022-09-03T03:27:43.824Z,18.93
2022-09-03T03:32:46.783Z,18.83
2022-09-03T03:37:49.540Z,18.64
2022-09-03T03:42:51.923Z,18.70
2022-09-03T03:47:58.108Z,19.21
2022-09-03T03:53:01.821Z,18.91
2022-09-03T03:58:04.324Z,18.68
2022-09-03T04:03:07.844Z,18.78
2022-09-03T04:08:10.377Z,18.06
2022-09-03T04:13:12.716Z,18.63
2022-09-03T04:18:15.017Z,18.77
2022-09-03T04:23:18.159Z,18.53
2022-09-03T04:28:20.425Z,20.06
2022-09-03T04:33:26.144Z,20.46
2022-09-03T04:38:49.053Z,19.86
2022-09-03T04:44:09.511Z,19.51
2022-09-03T04:49:11.677Z,19.21
2022-09-03T04:54:14.224Z,18.78
2022-09-03T04:59:16.511Z,19.01
2022-09-03T05:04:38.039Z,18.85
2022-09-03T05:09:40.567Z,18.68
2022-09-03T05:14:43.054Z,18.62
2022-09-03T05:19:45.341Z,18.73
2022-09-03T05:24:48.522Z,18.70
2022-09-03T05:29:51.023Z,18.21
2022-09-03T05:34:54.186Z,18.56
2022-09-03T05:39:56.714Z,18.39
2022-09-03T05:44:59.285Z,18.39
2022-09-03T05:50:01.751Z,18.55
2022-09-03T05:55:06.147Z,18.47
2022-09-03T06:00:09.574Z,18.04
2022-09-03T06:05:32.004Z,18.02
2022-09-03T06:10:40.887Z,18.13
2022-09-03T06:15:43.816Z,18.43
2022-09-03T06:20:54.803Z,18.96
2022-09-03T06:26:05.074Z,19.09
2022-09-03T06:31:10.641Z,19.28
2022-09-03T06:36:17.042Z,19.24
2022-09-03T06:41:21.553Z,19.41
2022-09-03T06:46:24.714Z,19.62
2022-09-03T06:51:29.081Z,19.73
2022-09-03T06:56:34.964Z,19.65
2022-09-03T07:01:44.136Z,19.85
2022-09-03T07:06:48.602Z,20.03
2022-09-03T07:11:51.002Z,20.03
2022-09-03T07:16:53.622Z,20.17
2022-09-03T07:21:56.254Z,20.44
2022-09-03T07:27:00.895Z,20.34
2022-09-03T07:32:03.965Z,20.21
2022-09-03T07:37:10.335Z,20.63
2022-09-03T07:42:13.216Z,20.76
2022-09-03T07:47:16.515Z,21.10
2022-09-03T07:52:31.136Z,21.84
2022-09-03T07:57:58.835Z,23.97
2022-09-03T08:03:02.555Z,25.03
2022-09-03T08:08:06.735Z,25.73
2022-09-03T08:13:09.375Z,25.99
2022-09-03T08:18:12.695Z,25.70
2022-09-03T08:23:15.694Z,24.97
2022-09-03T08:28:19.535Z,24.75
2022-09-03T08:33:23.465Z,23.92
2022-09-03T08:38:33.158Z,23.24
2022-09-03T08:44:03.120Z,22.89
2022-09-03T08:49:52.067Z,22.19
2022-09-03T08:55:36.497Z,21.77
2022-09-03T09:00:57.938Z,21.77
2022-09-03T09:06:44.617Z,20.98
2022-09-03T09:17:45.855Z,21.34
2022-09-03T09:23:13.274Z,20.91
2022-09-03T09:28:30.956Z,19.95
2022-09-03T09:33:35.571Z,20.63
2022-09-03T09:38:40.244Z,20.72
2022-09-03T09:43:43.936Z,20.46
2022-09-03T09:49:25.299Z,19.85
2022-09-03T09:54:27.676Z,20.08
2022-09-03T10:00:00.183Z,20.10
2022-09-03T10:05:32.695Z,20.42
2022-09-03T10:10:42.896Z,20.34
2022-09-03T10:16:11.998Z,19.87
2022-09-03T10:21:44.054Z,20.42
2022-09-03T10:26:46.179Z,20.72
2022-09-03T10:32:02.934Z,20.80
2022-09-03T10:37:18.576Z,20.74
2022-09-03T10:42:42.057Z,20.83
2022-09-03T10:48:05.958Z,20.68
2022-09-03T10:53:32.134Z,19.97
2022-09-03T10:58:46.455Z,20.77
2022-09-03T11:04:13.049Z,21.15
2022-09-03T11:09:20.094Z,21.28
2022-09-03T11:14:44.934Z,22.56
2022-09-03T11:19:58.476Z,23.63
2022-09-03T11:25:03.395Z,23.55
2022-09-03T11:30:13.507Z,23.34
2022-09-03T11:35:29.215Z,24.31
2022-09-03T11:41:14.041Z,25.37
2022-09-03T11:46:34.855Z,24.64
2022-09-03T11:52:01.794Z,24.60
2022-09-03T11:57:28.477Z,24.56
2022-09-03T12:02:35.164Z,25.01
2022-09-03T12:08:16.006Z,25.08
2022-09-03T12:13:59.215Z,25.00
2022-09-03T12:19:12.717Z,25.64
2022-09-03T12:24:15.693Z,25.60
2022-09-03T12:29:36.416Z,25.52
2022-09-03T12:34:38.655Z,25.54
2022-09-03T12:40:08.393Z,25.74
2022-09-03T12:45:12.239Z,24.51
2022-09-03T12:50:20.977Z,25.25
2022-09-03T12:55:35.317Z,25.60
2022-09-03T13:00:43.254Z,25.71
2022-09-03T13:05:55.178Z,24.79
2022-09-03T13:11:01.855Z,25.30
2022-09-03T13:16:37.578Z,24.61
2022-09-03T13:21:48.956Z,24.99
2022-09-03T13:27:07.856Z,26.30
2022-09-03T13:32:31.569Z,25.89
2022-09-03T13:37:55.054Z,25.88
2022-09-03T13:43:12.122Z,25.52
2022-09-03T13:48:29.307Z,25.00
2022-09-03T13:53:49.843Z,25.58
2022-09-03T13:59:32.342Z,25.18
2022-09-03T14:04:58.743Z,25.21
2022-09-03T14:10:50.202Z,25.61
2022-09-03T14:16:37.646Z,25.76
2022-09-03T14:21:54.446Z,25.01
2022-09-03T14:27:24.599Z,26.28
2022-09-03T14:33:17.212Z,26.34
2022-09-03T14:38:45.154Z,26.98
2022-09-03T14:43:59.376Z,27.45
2022-09-03T14:49:13.715Z,27.00
2022-09-03T14:54:41.857Z,27.53
2022-09-03T14:59:55.176Z,27.74
2022-09-03T15:05:54.356Z,27.81
2022-09-03T15:11:02.255Z,28.05
2022-09-03T15:16:51.138Z,28.35
2022-09-03T15:22:26.016Z,27.20
2022-09-03T15:27:37.159Z,27.62
2022-09-03T15:33:00.861Z,27.30
2022-09-03T15:38:13.481Z,27.59
2022-09-03T15:43:36.316Z,27.36
2022-09-03T15:54:34.017Z,27.11
2022-09-03T16:00:02.848Z,26.81
2022-09-03T16:05:14.117Z,26.77
2022-09-03T16:10:59.260Z,26.73
2022-09-03T16:16:08.756Z,26.14
2022-09-03T16:21:51.007Z,25.77
2022-09-03T16:27:12.777Z,25.62
2022-09-03T16:33:03.618Z,25.13
2022-09-03T16:38:32.815Z,24.29
2022-09-03T16:43:44.434Z,24.64
2022-09-03T16:49:25.199Z,24.36
2022-09-03T16:54:57.071Z,24.50
2022-09-03T17:00:21.597Z,24.58
2022-09-03T17:05:42.758Z,24.79
2022-09-03T17:11:30.357Z,24.94
2022-09-03T17:16:34.172Z,24.85
2022-09-03T17:22:17.096Z,24.94
2022-09-03T17:27:53.319Z,24.93
2022-09-03T17:33:17.177Z,24.75
2022-09-03T17:38:44.956Z,24.42
2022-09-03T17:43:53.803Z,24.20
2022-09-03T17:49:33.215Z,24.13
2022-09-03T17:54:59.976Z,24.03
2022-09-03T18:00:07.917Z,23.72
2022-09-03T18:05:25.904Z,23.51
2022-09-03T18:11:08.357Z,23.32
2022-09-03T18:16:16.413Z,23.03
2022-09-03T18:21:39.698Z,23.01
2022-09-03T18:26:48.104Z,23.09
2022-09-03T18:32:09.097Z,23.19
2022-09-03T18:37:30.222Z,22.80
2022-09-03T18:43:17.595Z,22.52
2022-09-03T18:48:34.498Z,22.40
2022-09-03T18:54:14.157Z,22.17
2022-09-03T18:59:16.577Z,22.07
2022-09-03T19:04:46.175Z,21.96
2022-09-03T19:10:22.657Z,21.81
2022-09-03T19:15:30.452Z,21.61
2022-09-03T19:21:28.714Z,21.50
2022-09-03T19:26:44.140Z,21.31
2022-09-03T19:32:16.994Z,21.19
2022-09-03T19:37:25.816Z,21.14
2022-09-03T19:42:43.256Z,21.08
2022-09-03T19:48:04.844Z,20.96
2022-09-03T19:53:25.959Z,20.48
2022-09-03T19:58:55.883Z,20.79
2022-09-03T20:04:13.414Z,20.46
2022-09-03T20:09:40.264Z,20.44
2022-09-03T20:15:04.907Z,20.67
2022-09-03T20:21:02.300Z,20.81
2022-09-03T20:26:11.876Z,20.62
2022-09-03T20:31:25.871Z,20.59
2022-09-03T20:37:15.365Z,20.41
2022-09-03T20:42:42.416Z,20.40
2022-09-03T20:48:13.442Z,20.58
2022-09-03T20:53:58.038Z,20.72
2022-09-03T20:59:15.377Z,20.51
2022-09-03T21:05:01.165Z,20.21
2022-09-03T21:10:13.507Z,20.00
2022-09-03T21:15:56.538Z,19.51
2022-09-03T21:21:48.175Z,19.71
2022-09-03T21:27:18.146Z,19.88
2022-09-03T21:32:25.236Z,19.78
2022-09-03T21:37:28.014Z,19.96
2022-09-03T21:42:36.581Z,20.00
2022-09-03T21:48:25.976Z,19.61
2022-09-03T21:53:38.036Z,19.71
2022-09-03T21:59:02.435Z,19.82
2022-09-03T22:04:28.313Z,19.80
2022-09-03T22:09:54.740Z,19.72
2022-09-03T22:14:57.192Z,19.74
2022-09-03T22:19:59.343Z,19.99
2022-09-03T22:25:47.433Z,19.94
2022-09-03T22:31:23.434Z,19.65
2022-09-03T22:36:51.323Z,19.60
2022-09-03T22:42:14.694Z,19.51
2022-09-03T22:47:48.370Z,19.41
2022-09-03T22:53:05.634Z,19.48
2022-09-03T22:58:33.693Z,19.52
2022-09-03T23:03:45.418Z,19.66
2022-09-03T23:08:54.024Z,19.57
2022-09-03T23:14:09.234Z,19.51
2022-09-03T23:24:28.016Z,19.61
2022-09-03T23:29:41.376Z,19.34
2022-09-03T23:34:43.516Z,19.34
2022-09-03T23:39:51.559Z,19.18
2022-09-03T23:45:10.261Z,19.19
2022-09-03T23:51:00.974Z,18.95
2022-09-03T23:56:39.594Z,18.79
